createdAt,value
2023-03-26T00:00:12.863Z,69.22
2023-03-26T00:02:41.342Z,50.22
2023-03-26T00:05:14.562Z,54.05
2023-03-26T00:07:42.952Z,55.70
2023-03-26T00:10:12.184Z,49.25
2023-03-26T00:12:40.508Z,51.72
2023-03-26T00:15:10.729Z,58.83
2023-03-26T00:17:39.081Z,67.68
2023-03-26T00:20:11.430Z,49.97
2023-03-26T00:22:40.440Z,50.13
2023-03-26T00:25:09.729Z,55.20
2023-03-26T00:27:38.220Z,57.28
2023-03-26T00:30:08.764Z,58.95
2023-03-26T00:32:37.111Z,46.70
2023-03-26T00:35:06.430Z,57.05
2023-03-26T00:37:36.102Z,47.33
2023-03-26T00:40:07.741Z,48.00
2023-03-26T00:42:36.412Z,47.38
2023-03-26T00:45:05.578Z,45.92
2023-03-26T00:47:33.965Z,44.92
2023-03-26T00:50:04.068Z,54.08
2023-03-26T00:52:32.360Z,51.65
2023-03-26T00:55:02.400Z,38.72
2023-03-26T00:57:35.809Z,38.85
2023-03-26T01:00:16.586Z,46.70
2023-03-26T01:02:45.432Z,38.25
2023-03-26T01:05:48.817Z,35.42
2023-03-26T01:08:37.114Z,45.78
2023-03-26T01:11:14.021Z,44.80
2023-03-26T01:13:48.603Z,39.97
2023-03-26T01:16:28.228Z,43.05
2023-03-26T01:18:58.866Z,40.60
2023-03-26T01:21:30.508Z,47.53
2023-03-26T01:24:02.650Z,41.38
2023-03-26T01:26:48.242Z,32.70
2023-03-26T01:29:25.220Z,51.92
2023-03-26T01:32:09.979Z,45.80
2023-03-26T01:34:50.978Z,33.50
2023-03-26T01:37:27.239Z,34.05
2023-03-26T01:40:05.012Z,48.08
2023-03-26T01:42:39.113Z,43.42
2023-03-26T01:45:13.023Z,41.17
2023-03-26T01:47:43.694Z,41.03
2023-03-26T01:50:12.474Z,43.67
2023-03-26T01:52:41.235Z,41.53
2023-03-26T01:55:12.750Z,39.65
2023-03-26T01:57:55.968Z,41.45
2023-03-26T02:00:30.542Z,44.42
2023-03-26T02:03:18.880Z,38.28
2023-03-26T02:05:56.623Z,45.42
2023-03-26T02:08:35.502Z,49.53
2023-03-26T02:11:11.884Z,43.40
2023-03-26T02:13:41.660Z,45.13
2023-03-26T02:16:14.216Z,37.28
2023-03-26T02:18:43.428Z,37.55
2023-03-26T02:21:20.136Z,41.88
2023-03-26T02:23:57.739Z,31.30
2023-03-26T02:26:27.543Z,41.15
2023-03-26T02:28:55.906Z,48.75
2023-03-26T02:31:26.445Z,35.30
2023-03-26T02:33:55.667Z,39.03
2023-03-26T02:36:27.971Z,43.13
2023-03-26T02:38:58.150Z,36.20
2023-03-26T02:41:27.996Z,53.97
2023-03-26T02:43:56.373Z,40.45
2023-03-26T02:46:24.730Z,37.92
2023-03-26T02:48:53.040Z,44.38
2023-03-26T02:51:21.405Z,35.38
2023-03-26T02:53:49.772Z,48.17
2023-03-26T02:56:18.071Z,31.27
2023-03-26T02:58:48.393Z,35.55
2023-03-26T03:01:18.545Z,46.70
2023-03-26T03:03:48.525Z,41.35
2023-03-26T03:06:20.044Z,33.78
2023-03-26T03:08:48.475Z,39.08
2023-03-26T03:11:21.962Z,38.92
2023-03-26T03:13:52.547Z,39.05
2023-03-26T03:16:21.401Z,35.92
2023-03-26T03:18:54.582Z,56.65
2023-03-26T03:21:23.428Z,48.47
2023-03-26T03:23:51.966Z,41.75
2023-03-26T03:26:28.048Z,42.40
2023-03-26T03:28:58.966Z,39.97
2023-03-26T03:31:28.536Z,36.95
2023-03-26T03:33:56.979Z,36.90
2023-03-26T03:36:27.680Z,36.33
2023-03-26T03:38:56.170Z,36.53
2023-03-26T03:41:24.601Z,46.42
2023-03-26T03:43:52.923Z,37.28
2023-03-26T03:46:22.616Z,39.65
2023-03-26T03:48:51.028Z,35.60
2023-03-26T03:51:19.770Z,39.67
2023-03-26T03:53:49.389Z,39.70
2023-03-26T03:56:19.328Z,40.50
2023-03-26T03:58:47.727Z,38.35
2023-03-26T04:01:17.037Z,44.10
2023-03-26T04:03:47.169Z,31.08
2023-03-26T04:06:19.004Z,33.20
2023-03-26T04:08:47.933Z,31.63
2023-03-26T04:11:16.321Z,37.95
2023-03-26T04:13:44.976Z,44.13
2023-03-26T04:16:13.294Z,32.60
2023-03-26T04:18:41.936Z,40.25
2023-03-26T04:21:12.775Z,33.67
2023-03-26T04:23:42.360Z,34.90
2023-03-26T04:26:16.832Z,32.97
2023-03-26T04:28:49.751Z,32.75
2023-03-26T04:31:24.719Z,29.05
2023-03-26T04:33:55.936Z,27.67
2023-03-26T04:36:29.852Z,34.85
2023-03-26T04:39:02.424Z,35.85
2023-03-26T04:41:32.434Z,33.67
2023-03-26T04:44:02.107Z,38.90
2023-03-26T04:46:33.465Z,37.10
2023-03-26T04:49:02.336Z,29.48
2023-03-26T04:51:39.738Z,30.20
2023-03-26T04:54:09.666Z,39.03
2023-03-26T04:56:49.641Z,34.05
2023-03-26T04:59:26.585Z,37.58
2023-03-26T05:01:55.330Z,30.05
2023-03-26T05:04:23.743Z,29.73
2023-03-26T05:06:53.965Z,45.05
2023-03-26T05:09:22.534Z,42.88
2023-03-26T05:11:51.263Z,43.13
2023-03-26T05:14:19.932Z,34.83
2023-03-26T05:16:50.481Z,38.20
2023-03-26T05:19:18.868Z,30.83
2023-03-26T05:21:47.439Z,32.40
2023-03-26T05:24:17.114Z,29.42
2023-03-26T05:26:45.510Z,44.65
2023-03-26T05:29:20.763Z,26.20
2023-03-26T05:31:49.492Z,27.33
2023-03-26T05:34:17.836Z,32.70
2023-03-26T05:36:46.111Z,38.58
2023-03-26T05:39:14.562Z,30.00
2023-03-26T05:41:44.339Z,28.15
2023-03-26T05:44:12.750Z,29.58
2023-03-26T05:46:41.249Z,39.72
2023-03-26T05:49:09.511Z,26.38
2023-03-26T05:51:37.858Z,33.15
2023-03-26T05:54:06.363Z,36.47
2023-03-26T05:56:36.066Z,27.67
2023-03-26T05:59:06.774Z,33.53
2023-03-26T06:01:35.100Z,24.35
2023-03-26T06:04:03.538Z,29.63
2023-03-26T06:06:33.282Z,29.42
2023-03-26T06:09:02.961Z,31.50
2023-03-26T06:11:32.972Z,23.55
2023-03-26T06:14:02.123Z,26.35
2023-03-26T06:16:31.881Z,32.67
2023-03-26T06:19:00.587Z,32.25
2023-03-26T06:21:30.243Z,34.42
2023-03-26T06:23:58.531Z,32.03
2023-03-26T06:26:26.826Z,33.58
2023-03-26T06:28:55.358Z,33.90
2023-03-26T06:31:23.845Z,30.15
2023-03-26T06:33:53.541Z,40.65
2023-03-26T06:36:21.914Z,29.13
2023-03-26T06:38:50.363Z,30.67
2023-03-26T06:41:18.670Z,31.45
2023-03-26T06:43:47.000Z,35.15
2023-03-26T06:46:15.541Z,29.20
2023-03-26T06:48:44.396Z,28.27
2023-03-26T06:51:14.149Z,32.53
2023-03-26T06:53:42.674Z,36.10
2023-03-26T06:56:11.659Z,32.17
2023-03-26T06:58:40.306Z,23.27
2023-03-26T07:01:08.835Z,31.55
2023-03-26T07:03:37.222Z,34.90
2023-03-26T07:06:06.372Z,21.92
2023-03-26T07:08:36.224Z,25.65
2023-03-26T07:11:04.654Z,22.45
2023-03-26T07:13:32.945Z,29.35
2023-03-26T07:16:01.457Z,26.48
2023-03-26T07:18:29.894Z,22.83
2023-03-26T07:20:58.906Z,21.95
2023-03-26T07:23:27.981Z,30.50
2023-03-26T07:25:58.893Z,31.15
2023-03-26T07:28:35.359Z,30.80
2023-03-26T07:31:20.003Z,29.75
2023-03-26T07:34:02.453Z,17.38
2023-03-26T07:36:37.461Z,15.73
2023-03-26T07:39:20.081Z,28.13
2023-03-26T07:41:54.909Z,26.85
2023-03-26T07:44:46.568Z,25.08
2023-03-26T07:47:26.225Z,17.98
2023-03-26T07:49:57.869Z,23.45
2023-03-26T07:52:28.371Z,25.20
2023-03-26T07:54:57.491Z,18.85
2023-03-26T07:57:40.631Z,25.15
2023-03-26T08:00:16.244Z,24.00
2023-03-26T08:03:05.895Z,23.80
2023-03-26T08:05:38.027Z,18.75
2023-03-26T08:08:16.544Z,37.70
2023-03-26T08:11:03.746Z,28.77
2023-03-26T08:13:51.166Z,27.35
2023-03-26T08:16:26.535Z,25.42
2023-03-26T08:19:05.069Z,25.85
2023-03-26T08:21:40.305Z,22.10
2023-03-26T08:24:16.301Z,23.92
2023-03-26T08:26:51.411Z,24.17
2023-03-26T08:29:28.070Z,24.50
2023-03-26T08:31:57.561Z,29.83
2023-03-26T08:34:25.982Z,28.35
2023-03-26T08:36:54.386Z,25.88
2023-03-26T08:39:23.414Z,30.08
2023-03-26T08:42:36.083Z,24.70
2023-03-26T08:45:54.769Z,26.35
2023-03-26T08:48:58.041Z,27.63
2023-03-26T08:52:09.042Z,29.30
2023-03-26T08:55:24.999Z,24.13
2023-03-26T08:58:55.837Z,18.15
2023-03-26T09:02:08.721Z,25.52
2023-03-26T09:05:21.464Z,19.75
2023-03-26T09:08:59.145Z,25.20
2023-03-26T09:12:32.695Z,35.72
2023-03-26T09:15:36.457Z,24.80
2023-03-26T09:19:07.421Z,24.65
2023-03-26T09:22:20.028Z,24.55
2023-03-26T09:25:23.875Z,24.70
2023-03-26T09:28:40.087Z,18.58
2023-03-26T09:31:28.051Z,19.27
2023-03-26T09:34:01.874Z,16.17
2023-03-26T09:37:15.612Z,11.00
2023-03-26T09:40:01.697Z,16.20
2023-03-26T09:42:42.280Z,9.80
2023-03-26T09:45:40.255Z,14.32
2023-03-26T09:48:46.332Z,13.38
2023-03-26T09:51:33.560Z,18.13
2023-03-26T09:54:48.212Z,10.50
2023-03-26T09:57:36.625Z,8.30
2023-03-26T10:00:25.514Z,9.35
2023-03-26T10:03:31.813Z,11.27
2023-03-26T10:06:14.240Z,10.10
2023-03-26T10:09:04.609Z,11.85
2023-03-26T10:11:58.207Z,12.90
2023-03-26T10:14:36.372Z,13.55
2023-03-26T10:17:20.480Z,12.30
2023-03-26T10:20:08.716Z,9.77
2023-03-26T10:22:56.736Z,8.35
2023-03-26T10:25:44.817Z,10.35
2023-03-26T10:28:43.743Z,10.73
2023-03-26T10:31:44.239Z,6.72
2023-03-26T10:34:30.588Z,8.45
2023-03-26T10:37:08.756Z,6.30
2023-03-26T10:40:06.961Z,9.27
2023-03-26T10:42:51.955Z,6.68
2023-03-26T10:45:40.504Z,7.95
2023-03-26T10:48:36.774Z,9.10
2023-03-26T10:51:48.696Z,11.85
2023-03-26T10:54:31.315Z,9.48
2023-03-26T10:57:02.347Z,15.40
2023-03-26T10:59:30.802Z,9.00
2023-03-26T11:02:30.137Z,7.80
2023-03-26T11:05:23.723Z,7.93
2023-03-26T11:07:58.967Z,12.05
2023-03-26T11:10:49.110Z,11.32
2023-03-26T11:13:28.503Z,10.35
2023-03-26T11:16:03.223Z,10.10
2023-03-26T11:18:42.389Z,13.98
2023-03-26T11:21:20.828Z,11.88
2023-03-26T11:24:10.455Z,15.15
2023-03-26T11:26:50.437Z,13.25
2023-03-26T11:29:38.978Z,14.70
2023-03-26T11:32:12.087Z,16.45
2023-03-26T11:34:47.086Z,14.32
2023-03-26T11:37:26.708Z,14.05
2023-03-26T11:39:57.964Z,16.13
2023-03-26T11:42:26.917Z,17.35
2023-03-26T11:44:59.431Z,17.75
2023-03-26T11:47:41.862Z,19.65
2023-03-26T11:50:18.228Z,21.83
2023-03-26T11:52:48.178Z,15.93
2023-03-26T11:55:16.931Z,14.52
2023-03-26T11:57:51.787Z,17.33
2023-03-26T12:00:27.631Z,11.90
2023-03-26T12:02:59.799Z,23.13
2023-03-26T12:05:33.609Z,16.08
2023-03-26T12:08:17.450Z,15.57
2023-03-26T12:10:46.289Z,19.80
2023-03-26T12:13:31.306Z,23.27
2023-03-26T12:16:04.433Z,14.60
2023-03-26T12:18:33.159Z,17.70
2023-03-26T12:21:09.379Z,25.08
2023-03-26T12:23:47.434Z,23.60
2023-03-26T12:26:19.178Z,20.08
2023-03-26T12:28:50.043Z,25.95
2023-03-26T12:31:20.396Z,23.30
2023-03-26T12:34:07.625Z,23.20
2023-03-26T12:36:36.608Z,18.38
2023-03-26T12:40:07.911Z,16.83
2023-03-26T12:44:55.341Z,17.65
2023-03-26T12:45:18.145Z,21.38
2023-03-26T12:48:00.712Z,19.67
2023-03-26T12:50:51.188Z,22.15
2023-03-26T12:53:47.899Z,22.00
2023-03-26T12:56:22.806Z,20.73
2023-03-26T12:59:11.795Z,23.77
2023-03-26T13:01:55.563Z,24.63
2023-03-26T13:05:05.069Z,18.98
2023-03-26T13:07:55.660Z,24.23
2023-03-26T13:10:51.935Z,19.50
2023-03-26T13:13:48.128Z,21.85
2023-03-26T13:16:31.610Z,25.77
2023-03-26T13:19:04.414Z,18.23
2023-03-26T13:21:45.518Z,29.27
2023-03-26T13:24:29.877Z,15.30
2023-03-26T13:27:13.537Z,20.55
2023-03-26T13:29:56.692Z,15.60
2023-03-26T13:32:40.993Z,20.33
2023-03-26T13:35:27.344Z,17.50
2023-03-26T13:38:03.401Z,19.52
2023-03-26T13:40:44.763Z,14.98
2023-03-26T13:43:29.772Z,18.13
2023-03-26T13:46:08.733Z,26.42
2023-03-26T13:48:46.780Z,16.35
2023-03-26T13:51:22.937Z,21.10
2023-03-26T13:53:56.768Z,25.10
2023-03-26T13:56:32.287Z,13.07
2023-03-26T13:59:05.432Z,26.35
2023-03-26T14:01:43.798Z,18.02
2023-03-26T14:04:21.576Z,28.10
2023-03-26T14:06:57.610Z,19.15
2023-03-26T14:09:32.709Z,14.23
2023-03-26T14:12:23.211Z,19.02
2023-03-26T14:14:56.592Z,14.63
2023-03-26T14:17:34.403Z,13.85
2023-03-26T14:20:44.725Z,18.35
2023-03-26T14:24:03.016Z,12.63
2023-03-26T14:26:59.646Z,11.52
2023-03-26T14:29:39.071Z,13.02
2023-03-26T14:32:47.561Z,12.75
2023-03-26T14:35:35.256Z,14.27
2023-03-26T14:38:54.922Z,14.65
2023-03-26T14:41:27.156Z,13.27
2023-03-26T14:44:48.477Z,13.90
2023-03-26T14:47:19.596Z,15.45
2023-03-26T14:50:26.699Z,14.77
2023-03-26T14:53:01.394Z,13.55
2023-03-26T14:56:15.548Z,10.23
2023-03-26T14:59:44.417Z,18.20
2023-03-26T15:03:38.762Z,9.38
2023-03-26T15:06:59.706Z,9.90
2023-03-26T15:10:10.180Z,13.10
2023-03-26T15:12:53.429Z,10.40
2023-03-26T15:16:13.918Z,19.25
2023-03-26T15:19:42.583Z,11.10
2023-03-26T15:22:55.491Z,12.13
2023-03-26T15:26:31.050Z,11.48
2023-03-26T15:29:38.901Z,20.25
2023-03-26T15:32:52.775Z,12.23
2023-03-26T15:35:47.347Z,13.90
2023-03-26T15:39:18.534Z,10.05
2023-03-26T15:41:56.396Z,15.43
2023-03-26T15:44:55.061Z,14.02
2023-03-26T15:47:56.030Z,16.20
2023-03-26T15:50:42.180Z,15.45
2023-03-26T15:53:30.454Z,13.05
2023-03-26T15:56:28.239Z,10.80
2023-03-26T15:59:09.073Z,14.95
2023-03-26T16:02:02.479Z,13.25
2023-03-26T16:04:50.787Z,9.85
2023-03-26T16:07:52.902Z,15.77
2023-03-26T16:10:29.210Z,11.93
2023-03-26T16:13:26.280Z,20.63
2023-03-26T16:15:59.610Z,11.73
2023-03-26T16:18:35.920Z,14.27
2023-03-26T16:21:40.785Z,22.52
2023-03-26T16:24:28.330Z,13.25
2023-03-26T16:27:32.539Z,9.07
2023-03-26T16:30:33.186Z,10.75
2023-03-26T16:33:16.058Z,10.93
2023-03-26T16:36:07.302Z,14.70
2023-03-26T16:38:52.303Z,14.32
2023-03-26T16:41:25.497Z,13.77
2023-03-26T16:44:13.858Z,17.75
2023-03-26T16:47:00.112Z,15.70
2023-03-26T16:50:13.205Z,14.40
2023-03-26T16:52:52.072Z,14.20
2023-03-26T16:55:29.952Z,15.07
2023-03-26T16:58:15.264Z,10.52
2023-03-26T17:00:49.964Z,11.75
2023-03-26T17:03:48.431Z,12.35
2023-03-26T17:06:56.711Z,15.55
2023-03-26T17:09:35.343Z,9.20
2023-03-26T17:12:18.701Z,15.02
2023-03-26T17:15:07.619Z,9.90
2023-03-26T17:17:54.678Z,8.15
2023-03-26T17:20:46.329Z,14.48
2023-03-26T17:23:39.673Z,17.42
2023-03-26T17:26:18.951Z,15.20
2023-03-26T17:29:05.118Z,7.82
2023-03-26T17:31:42.748Z,17.30
2023-03-26T17:34:35.554Z,11.52
2023-03-26T17:37:06.852Z,11.82
2023-03-26T17:40:47.043Z,17.85
2023-03-26T17:43:43.873Z,12.77
2023-03-26T17:46:35.613Z,10.02
2023-03-26T17:49:17.793Z,13.45
2023-03-26T17:51:52.336Z,17.40
2023-03-26T17:54:29.596Z,12.80
2023-03-26T17:57:05.170Z,12.38
2023-03-26T17:59:34.055Z,10.68
2023-03-26T18:02:07.037Z,9.90
2023-03-26T18:04:39.294Z,9.95
2023-03-26T18:07:41.863Z,11.93
2023-03-26T18:10:33.446Z,9.43
2023-03-26T18:13:23.642Z,12.25
2023-03-26T18:16:09.564Z,9.80
2023-03-26T18:18:46.842Z,9.75
2023-03-26T18:21:29.483Z,8.77
2023-03-26T18:24:00.439Z,13.50
2023-03-26T18:26:37.638Z,16.30
2023-03-26T18:29:24.072Z,14.13
2023-03-26T18:31:58.312Z,11.55
2023-03-26T18:34:30.948Z,8.82
2023-03-26T18:37:15.773Z,16.10
2023-03-26T18:39:45.958Z,11.88
2023-03-26T18:42:23.737Z,9.63
2023-03-26T18:44:59.722Z,21.40
2023-03-26T18:47:31.685Z,15.65
2023-03-26T18:50:01.400Z,10.50
2023-03-26T18:52:31.528Z,14.23
2023-03-26T18:55:01.496Z,12.38
2023-03-26T18:57:31.470Z,13.77
2023-03-26T19:00:18.590Z,14.93
2023-03-26T19:02:52.605Z,11.23
2023-03-26T19:05:24.592Z,8.82
2023-03-26T19:07:54.329Z,14.02
2023-03-26T19:10:25.189Z,13.18
2023-03-26T19:12:58.174Z,11.02
2023-03-26T19:15:30.804Z,14.88
2023-03-26T19:18:07.146Z,11.70
2023-03-26T19:20:42.582Z,9.32
2023-03-26T19:23:16.408Z,19.42
2023-03-26T19:25:48.613Z,16.95
2023-03-26T19:28:22.015Z,12.30
2023-03-26T19:30:57.778Z,10.48
2023-03-26T19:33:35.044Z,11.32
2023-03-26T19:36:06.926Z,11.40
2023-03-26T19:38:44.271Z,14.18
2023-03-26T19:41:23.421Z,6.97
2023-03-26T19:43:55.850Z,11.25
2023-03-26T19:46:27.979Z,7.90
2023-03-26T19:48:59.068Z,17.92
2023-03-26T19:51:34.268Z,8.90
2023-03-26T19:54:06.325Z,14.65
2023-03-26T19:56:35.257Z,14.00
2023-03-26T19:59:05.570Z,13.38
2023-03-26T20:01:36.492Z,14.95
2023-03-26T20:04:07.845Z,8.75
2023-03-26T20:06:43.050Z,13.70
2023-03-26T20:09:14.505Z,5.65
2023-03-26T20:11:43.003Z,6.82
2023-03-26T20:14:20.364Z,6.65
2023-03-26T20:16:50.830Z,14.57
2023-03-26T20:19:19.332Z,12.20
2023-03-26T20:21:47.632Z,7.43
2023-03-26T20:24:18.336Z,9.40
2023-03-26T20:26:47.642Z,8.45
2023-03-26T20:29:16.761Z,10.48
2023-03-26T20:31:46.258Z,5.63
2023-03-26T20:34:19.973Z,11.98
2023-03-26T20:36:54.308Z,11.30
2023-03-26T20:39:23.816Z,10.35
2023-03-26T20:41:53.569Z,11.82
2023-03-26T20:44:22.799Z,9.75
2023-03-26T20:46:52.429Z,7.57
2023-03-26T20:49:22.940Z,9.20
2023-03-26T20:51:51.237Z,9.73
2023-03-26T20:54:21.820Z,9.60
2023-03-26T20:56:50.250Z,10.82
2023-03-26T20:59:22.289Z,12.32
2023-03-26T21:01:51.509Z,10.23
2023-03-26T21:04:22.797Z,9.10
2023-03-26T21:06:53.210Z,12.07
2023-03-26T21:09:25.197Z,9.18
2023-03-26T21:12:01.891Z,9.65
2023-03-26T21:14:39.216Z,8.75
2023-03-26T21:17:10.041Z,14.95
2023-03-26T21:19:41.377Z,13.35
2023-03-26T21:22:25.826Z,8.77
2023-03-26T21:25:06.980Z,20.60
2023-03-26T21:27:47.359Z,12.15
2023-03-26T21:30:17.799Z,14.68
2023-03-26T21:32:47.617Z,8.52
2023-03-26T21:35:19.007Z,9.07
2023-03-26T21:37:49.147Z,11.13
2023-03-26T21:40:19.788Z,11.40
2023-03-26T21:42:50.892Z,7.32
2023-03-26T21:45:21.711Z,14.07
2023-03-26T21:47:51.560Z,9.98
2023-03-26T21:50:24.466Z,9.88
2023-03-26T21:52:53.824Z,11.75
2023-03-26T21:55:25.164Z,9.35
2023-03-26T21:58:15.186Z,12.80
2023-03-26T22:00:51.755Z,12.02
2023-03-26T22:03:26.918Z,19.02
2023-03-26T22:06:05.174Z,14.18
2023-03-26T22:08:39.866Z,12.85
2023-03-26T22:11:09.511Z,10.32
2023-03-26T22:13:38.988Z,21.75
2023-03-26T22:16:09.440Z,11.88
2023-03-26T22:18:38.073Z,10.10
2023-03-26T22:21:08.867Z,13.38
2023-03-26T22:23:38.466Z,18.70
2023-03-26T22:26:07.934Z,13.90
2023-03-26T22:28:37.160Z,9.45
2023-03-26T22:31:09.658Z,9.75
2023-03-26T22:33:40.003Z,11.30
2023-03-26T22:36:23.085Z,13.75
2023-03-26T22:38:54.825Z,14.65
2023-03-26T22:41:23.644Z,11.57
2023-03-26T22:43:54.616Z,10.07
2023-03-26T22:46:24.278Z,10.85
2023-03-26T22:48:52.703Z,10.50
2023-03-26T22:51:22.445Z,6.53
2023-03-26T22:53:50.890Z,10.07
2023-03-26T22:56:19.233Z,7.18
2023-03-26T22:58:48.352Z,10.02
2023-03-26T23:01:20.394Z,10.82
2023-03-26T23:03:48.820Z,7.07
2023-03-26T23:06:17.802Z,4.65
2023-03-26T23:08:47.453Z,13.00
2023-03-26T23:11:18.138Z,6.22
2023-03-26T23:13:47.822Z,8.40
2023-03-26T23:16:17.954Z,13.75
2023-03-26T23:18:46.733Z,11.65
2023-03-26T23:21:16.773Z,9.13
2023-03-26T23:23:47.001Z,10.82
2023-03-26T23:26:15.549Z,10.25
2023-03-26T23:28:44.307Z,13.95
2023-03-26T23:31:14.224Z,8.35
2023-03-26T23:33:46.180Z,5.63
2023-03-26T23:36:18.103Z,8.00
2023-03-26T23:38:49.776Z,6.05
2023-03-26T23:41:21.598Z,6.70
2023-03-26T23:43:55.604Z,6.97
2023-03-26T23:46:30.188Z,4.68
2023-03-26T23:49:02.474Z,3.28
2023-03-26T23:51:31.589Z,2.30
2023-03-26T23:54:02.364Z,7.80
2023-03-26T23:56:31.858Z,8.20
2023-03-26T23:59:00.791Z,4.70
